Time;durP1;ratioP1;P1;durP2;ratioP2;P2;SDS_P1;SDS_P2;PMS_P1;PMS_P2;Temp;Humidity;BMP_temperature;BMP_pressure;BME280_temperature;BME280_humidity;BME280_pressure;Samples;Min_cycle;Max_cycle;Signal;HPM_P1;HPM_P2
2023/12/24 00:01:05;;;;;;;0.30;0.20;;;6.70;99.90;;;;;;5090887;28;20160;-78
2023/12/24 00:03:33;;;;;;;0.30;0.20;;;6.70;99.90;;;;;;5091347;28;20597;-78
2023/12/24 00:05:59;;;;;;;0.30;0.20;;;6.70;99.90;;;;;;5089576;28;20413;-78
2023/12/24 00:08:25;;;;;;;0.30;0.20;;;6.70;99.90;;;;;;5091393;28;20562;-78
2023/12/24 00:10:51;;;;;;;0.30;0.20;;;6.70;99.90;;;;;;5089737;28;20183;-78
2023/12/24 00:13:17;;;;;;;0.30;0.20;;;6.70;99.90;;;;;;5090670;28;20569;-81
2023/12/24 00:15:42;;;;;;;0.30;0.20;;;6.70;99.90;;;;;;5089557;28;20177;-78
2023/12/24 00:18:08;;;;;;;0.30;0.20;;;6.70;99.90;;;;;;5088960;28;20696;-81
2023/12/24 00:20:34;;;;;;;0.30;0.20;;;6.70;99.90;;;;;;5090601;28;20685;-81
2023/12/24 00:23:07;;;;;;;0.30;0.20;;;6.70;99.90;;;;;;5091018;28;20204;-78
2023/12/24 00:25:37;;;;;;;0.30;0.20;;;6.70;99.90;;;;;;5090594;28;20621;-78
2023/12/24 00:28:04;;;;;;;0.30;0.20;;;6.70;99.90;;;;;;5090876;28;20197;-81
2023/12/24 00:30:30;;;;;;;0.30;0.20;;;6.70;99.90;;;;;;5089518;28;20600;-78
2023/12/24 00:32:58;;;;;;;0.30;0.20;;;6.70;99.90;;;;;;5089270;28;20211;-78
2023/12/24 00:35:24;;;;;;;0.30;0.20;;;6.70;99.90;;;;;;5090536;28;20550;-82
2023/12/24 00:37:50;;;;;;;0.30;0.30;;;6.70;99.90;;;;;;5090363;28;20237;-81
2023/12/24 00:40:17;;;;;;;0.30;0.20;;;6.70;99.90;;;;;;5090546;28;20621;-78
2023/12/24 00:42:43;;;;;;;0.30;0.20;;;6.70;99.90;;;;;;5089239;28;20192;-78
2023/12/24 00:45:10;;;;;;;0.30;0.20;;;6.80;99.90;;;;;;5089479;28;20653;-81
2023/12/24 00:47:35;;;;;;;0.30;0.20;;;6.70;99.90;;;;;;5088934;28;20494;-81
2023/12/24 00:50:01;;;;;;;0.30;0.20;;;6.80;99.90;;;;;;5090491;28;20172;-82
2023/12/24 00:52:27;;;;;;;0.30;0.20;;;6.80;99.90;;;;;;5090282;28;20546;-79
2023/12/24 00:54:53;;;;;;;0.30;0.20;;;6.80;99.90;;;;;;5090313;28;20785;-78
2023/12/24 00:57:19;;;;;;;0.30;0.20;;;6.80;99.90;;;;;;5089827;28;20208;-81
2023/12/24 00:59:45;;;;;;;0.30;0.20;;;6.80;99.90;;;;;;5088808;28;20445;-81
2023/12/24 01:02:11;;;;;;;0.30;0.20;;;6.80;99.90;;;;;;5088691;28;20271;-81
2023/12/24 01:04:37;;;;;;;0.30;0.20;;;6.80;99.90;;;;;;5090081;28;20207;-82
2023/12/24 01:07:03;;;;;;;0.30;0.20;;;6.80;99.90;;;;;;5087606;28;20645;-81
2023/12/24 01:09:29;;;;;;;0.30;0.20;;;6.80;99.90;;;;;;5088621;28;20192;-81
2023/12/24 01:11:54;;;;;;;0.30;0.20;;;6.80;99.90;;;;;;5089938;28;20466;-79
2023/12/24 01:14:20;;;;;;;0.30;0.20;;;6.90;99.90;;;;;;5089991;28;20656;-78
2023/12/24 01:16:46;;;;;;;0.30;0.20;;;6.90;99.90;;;;;;5087408;28;20179;-78
2023/12/24 01:19:12;;;;;;;0.30;0.20;;;6.80;99.90;;;;;;5089690;28;20433;-78
2023/12/24 01:21:38;;;;;;;0.30;0.20;;;6.80;99.90;;;;;;5088369;28;20228;-81
2023/12/24 01:24:05;;;;;;;0.30;0.20;;;6.80;99.90;;;;;;5088609;28;20766;-81
2023/12/24 01:26:32;;;;;;;0.30;0.20;;;6.80;99.90;;;;;;5088270;28;20182;-82
2023/12/24 01:28:58;;;;;;;0.30;0.20;;;6.80;99.90;;;;;;5089286;28;20725;-81
2023/12/24 01:31:23;;;;;;;0.30;0.20;;;6.80;99.90;;;;;;5089565;28;20240;-82
2023/12/24 01:33:50;;;;;;;0.30;0.20;;;6.80;99.90;;;;;;5089826;28;20283;-78
2023/12/24 01:36:16;;;;;;;0.30;0.20;;;6.80;99.90;;;;;;5089274;28;20378;-78
2023/12/24 01:38:43;;;;;;;0.30;0.20;;;6.80;99.90;;;;;;5089118;28;20304;-78
2023/12/24 01:41:08;;;;;;;0.30;0.20;;;6.80;99.90;;;;;;5087713;28;20417;-81
2023/12/24 01:43:34;;;;;;;0.30;0.20;;;6.80;99.90;;;;;;5088267;28;20542;-78
2023/12/24 01:46:01;;;;;;;0.30;0.20;;;6.80;99.90;;;;;;5089637;28;20655;-81
2023/12/24 01:48:27;;;;;;;0.30;0.20;;;6.80;99.90;;;;;;5089396;28;20436;-81
2023/12/24 01:50:53;;;;;;;0.30;0.20;;;6.80;99.90;;;;;;5088832;28;20172;-78
2023/12/24 01:53:18;;;;;;;0.30;0.20;;;6.80;99.90;;;;;;5089453;28;20201;-81
2023/12/24 01:55:47;;;;;;;0.30;0.20;;;6.80;99.90;;;;;;5089158;28;20397;-78
2023/12/24 01:58:13;;;;;;;0.30;0.20;;;6.80;99.90;;;;;;5088911;28;20261;-78
2023/12/24 02:00:40;;;;;;;0.30;0.20;;;6.80;99.90;;;;;;5089073;28;20172;-79
2023/12/24 02:03:06;;;;;;;0.30;0.20;;;6.80;99.90;;;;;;5089297;28;20750;-81
2023/12/24 02:05:31;;;;;;;0.30;0.20;;;6.80;99.90;;;;;;5087675;28;20270;-78
2023/12/24 02:07:58;;;;;;;0.30;0.20;;;6.80;99.90;;;;;;5088777;28;20223;-81
2023/12/24 02:10:24;;;;;;;0.30;0.20;;;6.80;99.90;;;;;;5088536;28;20669;-81
2023/12/24 02:12:50;;;;;;;0.30;0.20;;;6.80;99.90;;;;;;5088948;28;20246;-81
2023/12/24 02:15:16;;;;;;;0.30;0.20;;;6.80;99.90;;;;;;5087436;28;20913;-81
2023/12/24 02:17:43;;;;;;;0.30;0.20;;;6.80;99.90;;;;;;5088114;28;20508;-78
2023/12/24 02:20:10;;;;;;;0.30;0.20;;;6.80;99.90;;;;;;5086459;28;20439;-81
2023/12/24 02:22:36;;;;;;;0.30;0.20;;;6.70;99.90;;;;;;5088639;28;20312;-82
2023/12/24 02:25:03;;;;;;;0.30;0.20;;;6.70;99.90;;;;;;5089383;28;20188;-82
2023/12/24 02:27:49;;;;;;;0.30;0.20;;;6.70;99.90;;;;;;5087601;28;20649;-81
2023/12/24 02:30:33;;;;;;;0.30;0.20;;;6.70;99.90;;;;;;5088954;28;20171;-82
2023/12/24 02:33:01;;;;;;;0.30;0.20;;;6.70;99.90;;;;;;5089203;28;20665;-81
2023/12/24 02:35:31;;;;;;;0.30;0.20;;;6.70;99.90;;;;;;5088626;28;20454;-78
2023/12/24 02:37:57;;;;;;;0.30;0.20;;;6.70;99.90;;;;;;5088346;28;20223;-77
2023/12/24 02:40:23;;;;;;;0.30;0.20;;;6.70;99.90;;;;;;5087178;28;20566;-78
2023/12/24 02:42:49;;;;;;;0.30;0.20;;;6.70;99.90;;;;;;5088572;28;20969;-78
2023/12/24 02:45:15;;;;;;;0.30;0.20;;;6.70;99.90;;;;;;5087344;28;20361;-78
2023/12/24 02:47:41;;;;;;;0.30;0.20;;;6.70;99.90;;;;;;5088562;28;20251;-78
2023/12/24 02:50:06;;;;;;;0.30;0.20;;;6.70;99.90;;;;;;5088457;28;20393;-78
2023/12/24 02:52:32;;;;;;;0.30;0.20;;;6.70;99.90;;;;;;5088712;28;20576;-80
2023/12/24 02:54:58;;;;;;;0.30;0.20;;;6.70;99.90;;;;;;5088784;28;20741;-81
2023/12/24 02:57:23;;;;;;;0.30;0.20;;;6.70;99.90;;;;;;5087046;28;20698;-82
2023/12/24 02:59:49;;;;;;;0.30;0.20;;;6.70;99.90;;;;;;5088595;28;20200;-78
2023/12/24 03:02:15;;;;;;;0.30;0.20;;;6.70;99.90;;;;;;5086872;28;20192;-82
2023/12/24 03:04:40;;;;;;;0.30;0.20;;;6.70;99.90;;;;;;5087620;28;20204;-79
2023/12/24 03:07:06;;;;;;;0.30;0.20;;;6.70;99.90;;;;;;5086608;28;20469;-78
2023/12/24 03:09:32;;;;;;;0.30;0.20;;;6.70;99.90;;;;;;5088306;28;20709;-78
2023/12/24 03:11:57;;;;;;;0.30;0.20;;;6.70;99.90;;;;;;5087205;28;20762;-82
2023/12/24 03:14:23;;;;;;;0.30;0.20;;;6.70;99.90;;;;;;5087290;28;20223;-81
2023/12/24 03:16:49;;;;;;;0.30;0.20;;;6.70;99.90;;;;;;5088236;28;20184;-81
2023/12/24 03:19:15;;;;;;;0.30;0.20;;;6.70;99.90;;;;;;5087624;28;20266;-78
2023/12/24 03:21:43;;;;;;;0.30;0.20;;;6.60;99.90;;;;;;5086960;28;20273;-80
2023/12/24 03:24:09;;;;;;;0.30;0.20;;;6.60;99.90;;;;;;5087696;28;20464;-81
2023/12/24 03:26:35;;;;;;;0.30;0.20;;;6.60;99.90;;;;;;5088026;28;20164;-79
2023/12/24 03:29:01;;;;;;;0.30;0.20;;;6.60;99.90;;;;;;5086972;28;21018;-82
2023/12/24 03:31:27;;;;;;;0.30;0.30;;;6.60;99.90;;;;;;5092152;28;20731;-81
2023/12/24 03:33:53;;;;;;;0.30;0.20;;;6.60;99.90;;;;;;5092268;28;20581;-81
2023/12/24 03:36:19;;;;;;;0.30;0.20;;;6.60;99.90;;;;;;5090237;28;20233;-82
2023/12/24 03:38:45;;;;;;;0.30;0.20;;;6.60;99.90;;;;;;5092165;28;20304;-78
2023/12/24 03:41:11;;;;;;;0.30;0.20;;;6.60;99.90;;;;;;5090327;28;20320;-78
2023/12/24 03:43:36;;;;;;;0.30;0.20;;;6.60;99.90;;;;;;5092443;28;20607;-78
2023/12/24 03:46:02;;;;;;;0.30;0.20;;;6.60;99.90;;;;;;5090148;28;20458;-78
2023/12/24 03:48:30;;;;;;;66.57;62.63;;;6.60;99.90;;;;;;5090289;28;20208;-78
2023/12/24 03:50:55;;;;;;;0.30;0.20;;;6.60;99.90;;;;;;5091325;28;20622;-81
2023/12/24 03:53:21;;;;;;;0.30;0.30;;;6.60;99.90;;;;;;5091932;28;20204;-81
2023/12/24 03:55:47;;;;;;;0.30;0.20;;;6.60;99.90;;;;;;5090953;28;20160;-78
2023/12/24 03:58:13;;;;;;;0.30;0.20;;;6.60;99.90;;;;;;5091454;28;20224;-78
2023/12/24 04:00:39;;;;;;;0.30;0.20;;;6.60;99.90;;;;;;5091146;28;20428;-79
2023/12/24 04:03:05;;;;;;;0.30;0.20;;;6.50;99.90;;;;;;5091242;28;20761;-81
2023/12/24 04:05:30;;;;;;;0.30;0.20;;;6.40;99.90;;;;;;5091043;28;20428;-78
2023/12/24 04:07:56;;;;;;;0.30;0.20;;;6.40;99.90;;;;;;5091079;28;20560;-81
2023/12/24 04:10:22;;;;;;;0.30;0.20;;;6.40;99.90;;;;;;5090941;28;20184;-78
2023/12/24 04:12:47;;;;;;;1.50;1.47;;;6.30;99.90;;;;;;5089908;28;20696;-78
2023/12/24 04:15:13;;;;;;;0.30;0.20;;;6.30;99.90;;;;;;5090867;28;20251;-81
2023/12/24 04:17:39;;;;;;;0.30;0.20;;;6.30;99.90;;;;;;5090512;28;20216;-81
2023/12/24 04:20:05;;;;;;;0.30;0.20;;;6.20;99.90;;;;;;5090427;28;20258;-82
2023/12/24 04:22:32;;;;;;;0.30;0.20;;;6.10;99.90;;;;;;5090859;28;20172;-78
2023/12/24 04:24:58;;;;;;;0.30;0.20;;;6.10;99.90;;;;;;5090791;28;20161;-81
2023/12/24 04:27:24;;;;;;;0.30;0.20;;;6.10;99.90;;;;;;5089980;28;20219;-81
2023/12/24 04:29:50;;;;;;;0.30;0.20;;;6.10;99.90;;;;;;5089452;28;20193;-78
2023/12/24 04:32:17;;;;;;;0.30;0.20;;;6.00;99.90;;;;;;5090958;28;20180;-81
2023/12/24 04:34:43;;;;;;;0.30;0.20;;;6.00;99.90;;;;;;5091695;28;20642;-79
2023/12/24 04:37:09;;;;;;;0.30;0.20;;;6.00;99.90;;;;;;5090845;28;20525;-78
2023/12/24 04:39:35;;;;;;;0.30;0.20;;;6.10;99.90;;;;;;5090501;28;20191;-81
2023/12/24 04:42:01;;;;;;;0.30;0.20;;;6.10;99.90;;;;;;5090262;28;20548;-81
2023/12/24 04:44:26;;;;;;;0.30;0.20;;;6.10;99.90;;;;;;5090544;28;20196;-82
2023/12/24 04:46:52;;;;;;;0.30;0.20;;;6.10;99.90;;;;;;5090131;28;20657;-78
2023/12/24 04:49:18;;;;;;;0.30;0.20;;;6.00;99.90;;;;;;5090054;28;20184;-80
2023/12/24 04:51:43;;;;;;;0.30;0.20;;;6.00;99.90;;;;;;5088953;28;20401;-80
2023/12/24 04:54:09;;;;;;;0.30;0.20;;;5.90;99.90;;;;;;5090494;28;20200;-82
2023/12/24 04:56:35;;;;;;;0.30;0.20;;;5.90;99.90;;;;;;5090016;28;20637;-78
2023/12/24 04:59:01;;;;;;;0.30;0.20;;;5.90;99.90;;;;;;5090220;28;20220;-82
2023/12/24 05:01:26;;;;;;;0.30;0.20;;;6.00;99.90;;;;;;5089157;28;20198;-78
2023/12/24 05:03:52;;;;;;;0.30;0.20;;;6.00;99.90;;;;;;5090576;28;20193;-81
2023/12/24 05:06:18;;;;;;;0.30;0.20;;;6.00;99.90;;;;;;5090123;28;20484;-79
2023/12/24 05:08:44;;;;;;;0.30;0.20;;;6.00;99.90;;;;;;5090417;28;20295;-78
2023/12/24 05:11:09;;;;;;;0.30;0.20;;;6.00;99.90;;;;;;5088859;28;20222;-78
2023/12/24 05:13:36;;;;;;;0.30;0.20;;;6.00;99.90;;;;;;5088530;28;20246;-81
2023/12/24 05:16:05;;;;;;;0.30;0.20;;;5.90;99.90;;;;;;5089967;28;20739;-78
2023/12/24 05:18:34;;;;;;;0.30;0.20;;;5.90;99.90;;;;;;5088232;28;20589;-78
2023/12/24 05:21:00;;;;;;;0.30;0.20;;;5.80;99.90;;;;;;5088819;28;20228;-78
2023/12/24 05:23:26;;;;;;;0.30;0.20;;;5.80;99.90;;;;;;5089902;28;20606;-78
2023/12/24 05:25:51;;;;;;;0.30;0.20;;;5.70;99.90;;;;;;5088743;28;20191;-79
2023/12/24 05:28:17;;;;;;;0.30;0.20;;;5.80;99.90;;;;;;5089596;28;20441;-81
2023/12/24 05:30:44;;;;;;;0.30;0.20;;;5.90;99.90;;;;;;5089737;28;20619;-78
2023/12/24 05:33:10;;;;;;;0.30;0.20;;;5.90;99.90;;;;;;5089984;28;20455;-78
2023/12/24 05:35:36;;;;;;;0.30;0.20;;;6.00;99.90;;;;;;5088219;28;20176;-78
2023/12/24 05:38:02;;;;;;;0.30;0.20;;;6.00;99.90;;;;;;5089425;28;20716;-81
2023/12/24 05:40:27;;;;;;;0.30;0.20;;;6.00;99.90;;;;;;5089303;28;20561;-80
2023/12/24 05:42:53;;;;;;;0.30;0.20;;;6.00;99.90;;;;;;5088104;28;20291;-81
2023/12/24 05:45:19;;;;;;;0.30;0.20;;;6.00;99.90;;;;;;5089534;28;20175;-81
2023/12/24 05:47:45;;;;;;;0.30;0.20;;;6.00;99.90;;;;;;5089223;28;20298;-81
2023/12/24 05:50:10;;;;;;;0.30;0.20;;;6.00;99.90;;;;;;5089296;28;20161;-82
2023/12/24 05:52:37;;;;;;;0.30;0.20;;;5.90;99.90;;;;;;5087270;28;20705;-82
2023/12/24 05:55:03;;;;;;;0.30;0.20;;;5.90;99.90;;;;;;5089026;28;20647;-78
2023/12/24 05:57:29;;;;;;;0.30;0.20;;;6.00;99.90;;;;;;5087426;28;20208;-78
2023/12/24 05:59:56;;;;;;;0.30;0.20;;;6.00;99.90;;;;;;5087652;28;20230;-82
2023/12/24 06:02:21;;;;;;;0.30;0.20;;;6.00;99.90;;;;;;5088964;28;20237;-81
2023/12/24 06:04:47;;;;;;;0.30;0.20;;;6.00;99.90;;;;;;5089032;28;20192;-81
2023/12/24 06:07:13;;;;;;;0.30;0.20;;;5.90;99.90;;;;;;5088782;28;20187;-81
2023/12/24 06:09:38;;;;;;;0.30;0.20;;;5.80;99.90;;;;;;5087847;28;20255;-78
2023/12/24 06:12:05;;;;;;;0.30;0.20;;;5.80;99.90;;;;;;5087382;28;20168;-78
2023/12/24 06:14:31;;;;;;;0.30;0.20;;;5.70;99.90;;;;;;5088889;28;20648;-78
2023/12/24 06:16:56;;;;;;;0.30;0.20;;;5.70;99.90;;;;;;5087144;28;20255;-78
2023/12/24 06:19:22;;;;;;;0.30;0.20;;;5.60;99.90;;;;;;5087427;28;20463;-78
2023/12/24 06:21:49;;;;;;;0.30;0.20;;;5.60;99.90;;;;;;5089194;28;20405;-78
2023/12/24 06:24:21;;;;;;;0.30;0.20;;;5.60;99.90;;;;;;5087605;28;20820;-78
2023/12/24 06:26:51;;;;;;;0.30;0.20;;;5.60;99.90;;;;;;5086306;28;20191;-81
2023/12/24 06:29:17;;;;;;;0.30;0.20;;;5.60;99.90;;;;;;5088862;28;20235;-79
2023/12/24 06:31:42;;;;;;;0.30;0.20;;;5.60;99.90;;;;;;5087300;28;20180;-81
2023/12/24 06:34:08;;;;;;;0.30;0.20;;;5.70;99.90;;;;;;5087503;28;20196;-78
2023/12/24 06:36:34;;;;;;;0.30;0.20;;;5.70;99.90;;;;;;5085795;28;20188;-80
2023/12/24 06:39:00;;;;;;;0.30;0.20;;;5.60;99.90;;;;;;5085296;28;20224;-81
2023/12/24 06:41:25;;;;;;;0.30;0.20;;;5.70;99.90;;;;;;5086923;28;20165;-81
2023/12/24 06:43:51;;;;;;;0.30;0.20;;;5.70;99.90;;;;;;5087003;28;20494;-78
2023/12/24 06:46:17;;;;;;;0.30;0.20;;;5.70;99.90;;;;;;5085193;28;20182;-78
2023/12/24 06:48:43;;;;;;;0.30;0.20;;;5.70;99.90;;;;;;5087211;28;20193;-81
2023/12/24 06:51:09;;;;;;;0.30;0.20;;;5.70;99.90;;;;;;5087719;28;20428;-78
2023/12/24 06:53:35;;;;;;;0.30;0.20;;;5.70;99.90;;;;;;5087596;28;20422;-78
2023/12/24 06:56:01;;;;;;;0.30;0.20;;;5.80;99.90;;;;;;5088499;28;20226;-79
2023/12/24 06:58:27;;;;;;;0.30;0.20;;;5.70;99.90;;;;;;5087155;28;20219;-78
2023/12/24 07:00:53;;;;;;;0.30;0.20;;;5.80;99.90;;;;;;5088438;28;20781;-78
2023/12/24 07:03:18;;;;;;;0.30;0.20;;;5.80;99.90;;;;;;5088782;28;20572;-81
2023/12/24 07:05:44;;;;;;;6.27;6.07;;;5.90;99.90;;;;;;5091553;28;20548;-81
2023/12/24 07:08:10;;;;;;;0.30;0.20;;;6.00;99.90;;;;;;5092248;28;20362;-82
2023/12/24 07:10:36;;;;;;;0.30;0.20;;;6.00;99.90;;;;;;5092046;28;20226;-80
2023/12/24 07:13:02;;;;;;;1.67;1.52;;;6.10;99.90;;;;;;5090914;28;21261;-81
2023/12/24 07:15:32;;;;;;;0.30;0.20;;;6.10;99.90;;;;;;5091852;28;20176;-81
2023/12/24 07:17:57;;;;;;;0.30;0.20;;;6.10;99.90;;;;;;5091883;28;20224;-79
2023/12/24 07:20:23;;;;;;;0.30;0.20;;;6.10;99.90;;;;;;5089997;28;20324;-78
2023/12/24 07:22:49;;;;;;;0.30;0.20;;;6.20;99.90;;;;;;5092094;28;20554;-78
2023/12/24 07:25:15;;;;;;;0.30;0.20;;;6.10;99.90;;;;;;5090888;28;20409;-81
2023/12/24 07:27:43;;;;;;;0.30;0.20;;;6.10;99.90;;;;;;5090396;28;20632;-81
2023/12/24 07:30:09;;;;;;;0.30;0.20;;;6.10;99.90;;;;;;5091153;28;20187;-81
2023/12/24 07:32:35;;;;;;;0.30;0.20;;;6.10;99.90;;;;;;5091794;28;20172;-79
2023/12/24 07:35:01;;;;;;;0.30;0.20;;;6.10;99.90;;;;;;5091822;28;20582;-81
2023/12/24 07:37:26;;;;;;;0.30;0.20;;;6.20;99.90;;;;;;5091614;28;20199;-82
2023/12/24 07:39:52;;;;;;;0.30;0.20;;;6.20;99.90;;;;;;5090531;28;20326;-81
2023/12/24 07:42:18;;;;;;;0.30;0.20;;;6.20;99.90;;;;;;5090478;28;20180;-81
2023/12/24 07:44:44;;;;;;;0.30;0.20;;;6.30;99.90;;;;;;5091784;28;20204;-79
2023/12/24 07:47:10;;;;;;;0.30;0.20;;;6.40;99.90;;;;;;5090194;28;20407;-78
2023/12/24 07:49:35;;;;;;;0.30;0.20;;;6.40;99.90;;;;;;5091627;28;20425;-81
2023/12/24 07:52:01;;;;;;;0.30;0.20;;;6.40;99.90;;;;;;5091474;28;20168;-78
2023/12/24 07:54:27;;;;;;;0.30;0.20;;;6.40;99.90;;;;;;5091594;28;20300;-78
2023/12/24 07:56:52;;;;;;;0.30;0.20;;;6.40;99.90;;;;;;5091477;28;20637;-81
2023/12/24 07:59:18;;;;;;;0.30;0.20;;;6.40;99.90;;;;;;5091384;28;21005;-79
2023/12/24 08:01:44;;;;;;;0.30;0.20;;;6.40;99.90;;;;;;5088726;28;20339;-78
2023/12/24 08:04:10;;;;;;;0.30;0.20;;;6.50;99.90;;;;;;5088743;28;20608;-81
2023/12/24 08:06:35;;;;;;;0.30;0.20;;;6.50;99.90;;;;;;5089616;28;20420;-78
2023/12/24 08:09:02;;;;;;;0.30;0.20;;;6.60;99.90;;;;;;5091228;28;20462;-78
2023/12/24 08:11:27;;;;;;;0.30;0.20;;;6.60;99.90;;;;;;5091351;28;20176;-78
2023/12/24 08:13:54;;;;;;;0.30;0.20;;;6.70;99.90;;;;;;5091356;28;20204;-82
2023/12/24 08:16:19;;;;;;;0.30;0.20;;;6.80;99.90;;;;;;5090610;28;20561;-82
2023/12/24 08:18:45;;;;;;;0.30;0.20;;;6.80;99.90;;;;;;5090830;28;20215;-82
2023/12/24 08:21:11;;;;;;;0.30;0.20;;;6.80;99.90;;;;;;5088603;28;20315;-81
2023/12/24 08:23:38;;;;;;;0.30;0.20;;;6.80;99.90;;;;;;5089764;28;20196;-79
2023/12/24 08:26:04;;;;;;;0.30;0.20;;;6.80;99.90;;;;;;5089001;28;20892;-82
2023/12/24 08:28:29;;;;;;;0.30;0.20;;;6.90;99.90;;;;;;5087229;28;20601;-78
2023/12/24 08:30:55;;;;;;;0.30;0.20;;;6.90;99.90;;;;;;5088629;28;20165;-79
2023/12/24 08:33:21;;;;;;;0.30;0.20;;;7.00;99.90;;;;;;5089507;28;20349;-78
2023/12/24 08:35:47;;;;;;;5.23;4.73;;;7.00;99.90;;;;;;5088420;28;20549;-82
2023/12/24 08:38:12;;;;;;;0.30;0.20;;;7.00;99.90;;;;;;5090169;28;20507;-80
2023/12/24 08:40:38;;;;;;;0.30;0.20;;;7.10;99.90;;;;;;5089074;28;20226;-78
2023/12/24 08:43:04;;;;;;;0.50;0.50;;;7.20;99.90;;;;;;5089302;28;20811;-82
2023/12/24 08:45:30;;;;;;;0.30;0.20;;;7.20;99.90;;;;;;5088898;28;20641;-78
2023/12/24 08:47:56;;;;;;;0.30;0.20;;;7.10;99.90;;;;;;5084171;28;20240;-78
2023/12/24 08:50:21;;;;;;;3.90;3.10;;;7.20;99.90;;;;;;5089693;28;20267;-82
2023/12/24 08:52:47;;;;;;;0.30;0.20;;;7.10;99.90;;;;;;5089577;28;20245;-81
2023/12/24 08:55:15;;;;;;;0.30;0.20;;;7.00;99.90;;;;;;5089198;28;20252;-81
2023/12/24 08:57:41;;;;;;;0.30;0.20;;;7.00;99.90;;;;;;5090332;28;20207;-79
2023/12/24 09:00:11;;;;;;;0.30;0.20;;;7.00;99.90;;;;;;5090243;28;20626;-81
2023/12/24 09:02:38;;;;;;;1.35;1.35;;;7.10;99.90;;;;;;5088909;28;20245;-81
2023/12/24 09:05:05;;;;;;;0.30;0.20;;;7.00;99.90;;;;;;5090159;28;20172;-81
2023/12/24 09:07:30;;;;;;;4.10;4.00;;;7.00;99.90;;;;;;5087828;28;20550;-78
2023/12/24 09:09:56;;;;;;;0.30;0.20;;;7.10;99.90;;;;;;5088260;28;20173;-81
2023/12/24 09:12:22;;;;;;;0.30;0.20;;;7.10;99.90;;;;;;5088035;28;20260;-79
2023/12/24 09:14:47;;;;;;;0.30;0.20;;;7.10;99.90;;;;;;5086568;28;20287;-79
2023/12/24 09:17:13;;;;;;;0.30;0.20;;;7.10;99.90;;;;;;5088231;28;20177;-79
2023/12/24 09:19:39;;;;;;;0.30;0.20;;;7.10;99.90;;;;;;5087923;28;20802;-81
2023/12/24 09:22:04;;;;;;;0.30;0.20;;;7.20;99.90;;;;;;5088921;28;20226;-78
2023/12/24 09:24:30;;;;;;;0.30;0.20;;;7.20;99.90;;;;;;5088749;28;20197;-79
2023/12/24 09:26:56;;;;;;;0.30;0.20;;;7.20;99.90;;;;;;5087484;28;20204;-78
2023/12/24 09:29:22;;;;;;;0.30;0.20;;;7.30;99.90;;;;;;5088892;28;20444;-82
2023/12/24 09:31:48;;;;;;;2.13;2.00;;;7.30;99.90;;;;;;5088413;28;20176;-81
2023/12/24 09:34:14;;;;;;;0.30;0.20;;;7.30;99.90;;;;;;5090144;28;20211;-79
2023/12/24 09:36:39;;;;;;;0.30;0.20;;;7.40;99.90;;;;;;5088100;28;20187;-79
2023/12/24 09:39:06;;;;;;;0.30;0.20;;;7.40;99.90;;;;;;5089603;28;20247;-81
2023/12/24 09:41:32;;;;;;;0.30;0.20;;;7.40;99.90;;;;;;5088111;28;20779;-81
2023/12/24 09:43:58;;;;;;;0.30;0.20;;;7.40;99.90;;;;;;5088332;28;20287;-81
2023/12/24 09:46:23;;;;;;;0.30;0.20;;;7.40;99.90;;;;;;5089184;28;20598;-80
2023/12/24 09:48:49;;;;;;;0.30;0.20;;;7.40;99.90;;;;;;5088121;28;20449;-82
2023/12/24 09:51:15;;;;;;;0.60;0.60;;;7.50;99.90;;;;;;5089142;28;20248;-78
2023/12/24 09:53:45;;;;;;;16.60;13.40;;;7.50;99.90;;;;;;5088293;28;20486;-79
2023/12/24 09:56:10;;;;;;;0.30;0.20;;;7.60;99.90;;;;;;5088999;28;20177;-82
2023/12/24 09:58:36;;;;;;;0.30;0.20;;;7.60;99.90;;;;;;5087963;28;20222;-79
2023/12/24 10:01:02;;;;;;;0.30;0.20;;;7.70;99.90;;;;;;5087623;28;20540;-81
2023/12/24 10:03:27;;;;;;;0.30;0.20;;;7.70;99.90;;;;;;5089778;28;20196;-80
2023/12/24 10:05:59;;;;;;;0.30;0.20;;;7.80;99.90;;;;;;5088907;28;20173;-79
2023/12/24 10:08:25;;;;;;;0.40;0.40;;;7.80;99.90;;;;;;5089453;28;20192;-81
2023/12/24 10:10:51;;;;;;;0.30;0.20;;;7.90;99.90;;;;;;5088870;28;20161;-82
2023/12/24 10:13:21;;;;;;;4.20;4.00;;;7.90;99.90;;;;;;5087690;28;20204;-81
2023/12/24 10:16:00;;;;;;;0.30;0.20;;;7.90;99.90;;;;;;5089056;28;20191;-79
2023/12/24 10:18:26;;;;;;;0.85;0.85;;;7.90;99.90;;;;;;5089423;28;20553;-82
2023/12/24 10:21:06;;;;;;;0.30;0.20;;;7.90;99.90;;;;;;5087248;28;20359;-79
2023/12/24 10:23:33;;;;;;;0.40;0.40;;;8.00;99.90;;;;;;5089049;28;20986;-81
2023/12/24 10:26:06;;;;;;;0.30;0.20;;;8.10;99.90;;;;;;5088567;28;20240;-78
2023/12/24 10:28:33;;;;;;;0.30;0.20;;;8.10;99.90;;;;;;5088458;28;20554;-78
2023/12/24 10:31:09;;;;;;;1.00;1.00;;;8.10;99.90;;;;;;5088836;28;20176;-81
2023/12/24 10:33:36;;;;;;;0.30;0.20;;;8.30;99.90;;;;;;5087716;28;20192;-82
2023/12/24 10:36:03;;;;;;;0.65;0.65;;;8.20;99.90;;;;;;5088717;28;20180;-81
2023/12/24 10:38:29;;;;;;;0.30;0.20;;;8.30;99.90;;;;;;5090161;28;20230;-78
2023/12/24 10:40:55;;;;;;;0.30;0.20;;;8.50;99.90;;;;;;5091249;28;20176;-80
2023/12/24 10:43:21;;;;;;;0.30;0.20;;;8.50;99.90;;;;;;5091528;28;20440;-82
2023/12/24 10:45:46;;;;;;;0.30;0.20;;;8.60;99.90;;;;;;5092888;28;20190;-79
2023/12/24 10:48:12;;;;;;;0.30;0.30;;;8.70;99.90;;;;;;5092763;28;20436;-81
2023/12/24 10:50:38;;;;;;;1.83;1.73;;;8.80;99.90;;;;;;5092786;28;20401;-82
2023/12/24 10:53:04;;;;;;;0.50;0.50;;;8.80;99.90;;;;;;5093263;28;20437;-81
2023/12/24 10:55:31;;;;;;;0.50;0.50;;;8.90;99.90;;;;;;5092917;28;20400;-82
2023/12/24 10:58:24;;;;;;;0.30;0.20;;;9.00;99.90;;;;;;5092428;28;20676;-79
2023/12/24 11:00:50;;;;;;;0.30;0.20;;;9.10;99.90;;;;;;5090435;28;20747;-82
2023/12/24 11:03:44;;;;;;;0.30;0.20;;;9.20;99.90;;;;;;5091728;28;20196;-78
2023/12/24 11:06:10;;;;;;;0.30;0.20;;;9.30;99.90;;;;;;5107571;28;20252;-79
2023/12/24 11:08:36;;;;;;;0.30;0.20;;;9.30;99.90;;;;;;5108173;28;20381;-82
2023/12/24 11:11:04;;;;;;;2.87;2.77;;;9.40;99.90;;;;;;5091972;28;20417;-82
2023/12/24 11:13:37;;;;;;;0.30;0.20;;;9.40;99.90;;;;;;5107959;28;20204;-79
2023/12/24 11:16:07;;;;;;;0.30;0.20;;;9.50;99.90;;;;;;5091873;28;20161;-79
2023/12/24 11:18:47;;;;;;;7.95;2.35;;;9.60;99.90;;;;;;5107986;28;20256;-79
2023/12/24 11:21:15;;;;;;;0.30;0.20;;;9.80;99.90;;;;;;5107272;28;20243;-78
2023/12/24 11:23:42;;;;;;;0.30;0.20;;;9.90;99.90;;;;;;5107768;28;20203;-82
2023/12/24 11:26:33;;;;;;;0.30;0.20;;;9.90;99.90;;;;;;5108016;28;20184;-82
2023/12/24 11:29:00;;;;;;;0.30;0.20;;;10.10;99.90;;;;;;5107489;28;20192;-79
2023/12/24 11:31:27;;;;;;;0.40;0.30;;;10.30;99.90;;;;;;5091151;28;20176;-81
2023/12/24 11:33:56;;;;;;;0.30;0.20;;;10.50;99.90;;;;;;5107761;28;20223;-79
2023/12/24 11:36:24;;;;;;;0.30;0.20;;;10.60;99.90;;;;;;5091785;28;20239;-78
2023/12/24 11:38:58;;;;;;;0.30;0.20;;;10.70;99.90;;;;;;5092145;28;20236;-79
2023/12/24 11:41:25;;;;;;;0.30;0.20;;;10.70;99.90;;;;;;5091581;28;20504;-82
2023/12/24 11:43:55;;;;;;;0.30;0.20;;;10.80;99.90;;;;;;5092128;28;20802;-79
2023/12/24 11:46:23;;;;;;;0.50;0.50;;;10.80;99.90;;;;;;5091501;28;20206;-79
2023/12/24 11:48:49;;;;;;;0.30;0.20;;;10.90;99.90;;;;;;5091653;28;20207;-82
2023/12/24 11:51:15;;;;;;;0.30;0.20;;;11.00;99.90;;;;;;5106224;28;20573;-79
2023/12/24 11:53:42;;;;;;;0.30;0.20;;;11.10;99.90;;;;;;5092041;28;20211;-82
2023/12/24 11:56:10;;;;;;;0.30;0.20;;;11.10;99.90;;;;;;5107150;28;20276;-79
2023/12/24 11:58:38;;;;;;;1.20;1.20;;;11.20;99.90;;;;;;5091679;28;20472;-79
2023/12/24 12:01:04;;;;;;;0.30;0.20;;;11.30;99.90;;;;;;5091191;28;20173;-79
2023/12/24 12:03:33;;;;;;;0.52;0.52;;;11.30;99.90;;;;;;5091815;28;20193;-79
2023/12/24 12:06:00;;;;;;;2.17;2.05;;;11.30;99.90;;;;;;5091468;28;20536;-79
2023/12/24 12:08:30;;;;;;;0.50;0.50;;;11.40;99.90;;;;;;5091654;28;20192;-79
2023/12/24 12:10:56;;;;;;;0.40;0.40;;;11.40;99.90;;;;;;5106610;28;20461;-78
2023/12/24 12:13:23;;;;;;;0.35;0.22;;;11.40;99.90;;;;;;5091637;28;20227;-79
2023/12/24 12:15:49;;;;;;;0.30;0.20;;;11.40;99.90;;;;;;5106759;28;20177;-79
2023/12/24 12:18:16;;;;;;;0.40;0.40;;;11.40;99.90;;;;;;5106837;28;20477;-82
2023/12/24 12:20:45;;;;;;;3.40;3.30;;;11.50;99.90;;;;;;5106473;28;20604;-82
2023/12/24 12:23:16;;;;;;;0.30;0.20;;;11.50;99.90;;;;;;5090896;28;20449;-82
2023/12/24 12:25:42;;;;;;;0.30;0.20;;;11.50;99.90;;;;;;5106478;28;20180;-81
2023/12/24 12:28:08;;;;;;;0.30;0.20;;;11.50;99.90;;;;;;5090750;28;20441;-81
2023/12/24 12:30:33;;;;;;;0.80;0.77;;;11.50;99.90;;;;;;5106249;28;20474;-82
2023/12/24 12:33:00;;;;;;;0.33;0.30;;;11.50;99.90;;;;;;5105839;28;20206;-83
2023/12/24 12:35:26;;;;;;;0.30;0.20;;;11.50;99.90;;;;;;5090273;28;20180;-82
2023/12/24 12:37:51;;;;;;;0.30;0.20;;;11.50;99.90;;;;;;5106358;28;20612;-79
2023/12/24 12:40:17;;;;;;;0.30;0.30;;;11.60;99.90;;;;;;5090788;28;20172;-80
2023/12/24 12:42:43;;;;;;;3.70;3.60;;;11.60;99.90;;;;;;5106183;28;20181;-79
2023/12/24 12:45:09;;;;;;;0.30;0.20;;;11.60;99.90;;;;;;5106218;28;20456;-82
2023/12/24 12:47:35;;;;;;;0.70;0.70;;;11.70;99.90;;;;;;5090722;28;20863;-79
2023/12/24 12:50:01;;;;;;;0.30;0.20;;;11.70;99.90;;;;;;5090310;28;20176;-82
2023/12/24 12:52:26;;;;;;;0.40;0.20;;;11.70;99.90;;;;;;5090605;28;20428;-81